Rogers Park, Illinois
Current Conditions -  °F | °C
As of 5:51 AM on Thursday 18 Dec 2014 (Local Time) from KORD Reporting Station
Scattered Clouds Scattered Clouds  
Wind Chill: -11°   Ceiling: Unl
Heat Index: -7°   Visibility: 10mi
Dew Point: -10°   Wind: 5mph
Humidity: 81%   Direction: 270°W
Pressure: 30.27"   Gusts: NA
Location:  41.991°N, 87.6654°W
Report Text: KORD 181151Z 27004KT 10SM FEW030 SCT250 M07/M10 A3027 RMK AO2 SLP260 T10721100 11044 21072 58000
Loading
Personal Weather Stations






























Interactive Weather Map New forecast layout! Learn more

10-Day Weather Forecast

Advertisements
Track Severe Weather on mobile